Time;durP1;ratioP1;P1;durP2;ratioP2;P2;SDS_P1;SDS_P2;PMS_P1;PMS_P2;Temp;Humidity;BMP_temperature;BMP_pressure;BME280_temperature;BME280_humidity;BME280_pressure;Samples;Min_cycle;Max_cycle;Signal;HPM_P1;HPM_P2
2022/08/20 00:03:41;;;;;;;2.95;1.40;;;;;;;;;;10435160;28;21233;-46
2022/08/20 00:08:43;;;;;;;4.25;1.48;;;;;;;;;;10441387;28;20072;-49
2022/08/20 00:13:51;;;;;;;2.53;1.45;;;;;;;;;;10449028;28;20060;-47
2022/08/20 00:18:52;;;;;;;3.10;1.20;;;;;;;;;;10434400;28;20496;-47
2022/08/20 00:23:55;;;;;;;3.97;1.25;;;;;;;;;;10427959;28;20026;-48
2022/08/20 00:28:55;;;;;;;1.63;1.30;;;;;;;;;;10433921;28;20086;-47
2022/08/20 00:33:56;;;;;;;8.68;1.52;;;;;;;;;;10445857;28;20017;-48
2022/08/20 00:38:57;;;;;;;4.85;1.10;;;;;;;;;;10443343;28;20079;-47
2022/08/20 00:44:17;;;;;;;2.70;1.33;;;;;;;;;;10447677;28;20029;-47
2022/08/20 00:49:28;;;;;;;3.47;1.40;;;;;;;;;;10445757;28;20047;-46
2022/08/20 00:54:37;;;;;;;6.72;1.33;;;;;;;;;;10448145;28;20166;-46
2022/08/20 00:59:41;;;;;;;8.25;1.55;;;;;;;;;;10437500;28;20400;-47
2022/08/20 01:04:53;;;;;;;2.33;1.10;;;;;;;;;;10423886;28;20107;-47
2022/08/20 01:09:54;;;;;;;3.08;1.10;;;;;;;;;;10453899;28;20053;-47
2022/08/20 01:14:57;;;;;;;1.98;1.10;;;;;;;;;;10450919;28;20120;-47
2022/08/20 01:20:18;;;;;;;2.85;1.63;;;;;;;;;;10437115;28;20041;-47
2022/08/20 01:25:39;;;;;;;2.70;1.20;;;;;;;;;;10423776;28;20032;-47
2022/08/20 01:30:41;;;;;;;4.28;1.30;;;;;;;;;;10468293;28;20041;-47
2022/08/20 01:35:43;;;;;;;4.18;1.20;;;;;;;;;;10470804;28;20040;-47
2022/08/20 01:41:06;;;;;;;1.58;1.08;;;;;;;;;;10442802;28;20029;-46
2022/08/20 01:46:09;;;;;;;2.40;1.00;;;;;;;;;;10449627;28;20025;-47
2022/08/20 01:51:17;;;;;;;2.03;1.15;;;;;;;;;;10453284;28;20359;-46
2022/08/20 01:56:25;;;;;;;2.15;1.25;;;;;;;;;;10452238;28;20393;-47
2022/08/20 02:01:39;;;;;;;2.03;1.03;;;;;;;;;;10447191;28;20124;-48
2022/08/20 02:06:47;;;;;;;6.35;1.20;;;;;;;;;;10451822;28;20043;-48
2022/08/20 02:11:48;;;;;;;4.13;1.20;;;;;;;;;;10445446;28;20043;-48
2022/08/20 02:16:49;;;;;;;1.42;1.08;;;;;;;;;;10450860;28;20017;-47
2022/08/20 02:21:56;;;;;;;1.95;0.98;;;;;;;;;;10451849;28;20031;-48
2022/08/20 02:26:57;;;;;;;1.08;0.98;;;;;;;;;;10412793;28;20082;-46
2022/08/20 02:31:58;;;;;;;3.28;1.13;;;;;;;;;;10449156;28;20044;-46
2022/08/20 02:36:58;;;;;;;1.77;1.00;;;;;;;;;;10409562;28;20029;-47
2022/08/20 02:42:02;;;;;;;1.75;1.20;;;;;;;;;;10426208;28;20029;-47
2022/08/20 02:47:05;;;;;;;1.65;1.20;;;;;;;;;;10431898;28;20541;-46
2022/08/20 02:52:05;;;;;;;3.67;1.25;;;;;;;;;;10460527;28;20464;-47
2022/08/20 02:57:13;;;;;;;3.72;1.00;;;;;;;;;;10449253;28;20020;-46
2022/08/20 03:02:14;;;;;;;2.92;1.08;;;;;;;;;;10452219;28;20095;-48
2022/08/20 03:07:15;;;;;;;2.33;1.10;;;;;;;;;;10489293;22;20044;-50
2022/08/20 03:12:16;;;;;;;1.23;0.90;;;;;;;;;;10481835;28;20040;-52
2022/08/20 03:17:16;;;;;;;0.88;0.80;;;;;;;;;;10476539;28;20426;-58
2022/08/20 03:22:17;;;;;;;2.08;0.90;;;;;;;;;;10481537;28;20376;-55
2022/08/20 03:27:17;;;;;;;2.33;0.88;;;;;;;;;;10464716;28;20034;-54
2022/08/20 03:32:18;;;;;;;1.23;0.85;;;;;;;;;;10463080;28;20029;-58
2022/08/20 03:37:19;;;;;;;6.28;1.00;;;;;;;;;;10476310;28;20161;-57
2022/08/20 03:42:19;;;;;;;2.55;1.10;;;;;;;;;;10450030;28;20020;-57
2022/08/20 03:47:20;;;;;;;1.48;0.98;;;;;;;;;;10463657;28;20025;-56
2022/08/20 03:52:20;;;;;;;0.90;0.70;;;;;;;;;;10449602;28;20542;-56
2022/08/20 03:57:21;;;;;;;1.80;0.88;;;;;;;;;;10449613;28;20029;-54
2022/08/20 04:02:22;;;;;;;2.92;0.93;;;;;;;;;;10446141;28;20023;-56
2022/08/20 04:07:24;;;;;;;2.83;1.27;;;;;;;;;;10468821;28;20048;-58
2022/08/20 04:12:25;;;;;;;1.95;1.05;;;;;;;;;;10469958;28;20035;-52
2022/08/20 04:17:26;;;;;;;0.73;0.63;;;;;;;;;;10437971;28;20507;-58
2022/08/20 04:22:27;;;;;;;5.30;0.93;;;;;;;;;;10448726;28;20021;-57
2022/08/20 04:27:31;;;;;;;3.30;0.77;;;;;;;;;;10431389;28;20021;-58
2022/08/20 04:32:35;;;;;;;1.17;0.80;;;;;;;;;;10448786;28;20109;-58
2022/08/20 04:37:40;;;;;;;1.23;1.02;;;;;;;;;;10442390;28;20106;-56
2022/08/20 04:42:41;;;;;;;3.22;0.60;;;;;;;;;;10446356;28;20107;-60
2022/08/20 04:47:42;;;;;;;1.55;1.00;;;;;;;;;;10462461;28;20549;-56
2022/08/20 04:52:42;;;;;;;1.40;0.80;;;;;;;;;;10479252;28;20475;-51
2022/08/20 04:57:43;;;;;;;2.50;1.02;;;;;;;;;;10456652;28;20094;-54
2022/08/20 05:02:44;;;;;;;2.50;0.98;;;;;;;;;;10446118;28;20033;-50
2022/08/20 05:07:45;;;;;;;4.88;1.20;;;;;;;;;;10457612;28;20388;-52
2022/08/20 05:12:45;;;;;;;3.15;1.10;;;;;;;;;;10459825;28;20037;-53
2022/08/20 05:17:46;;;;;;;3.50;1.20;;;;;;;;;;10448119;28;20025;-54
2022/08/20 05:22:47;;;;;;;2.85;0.95;;;;;;;;;;10445684;28;20039;-55
2022/08/20 05:27:47;;;;;;;3.58;0.80;;;;;;;;;;10443605;28;20044;-59
2022/08/20 05:32:48;;;;;;;4.30;1.00;;;;;;;;;;10452756;28;20025;-58
2022/08/20 05:37:48;;;;;;;5.28;1.20;;;;;;;;;;10446881;28;20036;-59
2022/08/20 05:42:50;;;;;;;2.67;1.05;;;;;;;;;;10450278;28;20037;-58
2022/08/20 05:47:50;;;;;;;6.07;1.33;;;;;;;;;;10454071;28;20021;-57
2022/08/20 05:52:51;;;;;;;4.22;1.00;;;;;;;;;;10443501;28;20033;-60
2022/08/20 05:57:57;;;;;;;1.85;1.10;;;;;;;;;;10459720;28;20031;-60
2022/08/20 06:08:18;;;;;;;5.90;1.02;;;;;;;;;;10481351;28;20049;-58
2022/08/20 06:13:18;;;;;;;6.22;1.80;;;;;;;;;;10472455;28;20025;-56
2022/08/20 06:18:19;;;;;;;2.20;0.90;;;;;;;;;;10480097;28;20025;-61
2022/08/20 06:23:22;;;;;;;6.03;0.98;;;;;;;;;;10441950;28;20029;-53
2022/08/20 06:28:23;;;;;;;5.47;0.95;;;;;;;;;;10450231;28;20064;-59
2022/08/20 06:33:23;;;;;;;1.85;0.90;;;;;;;;;;10456249;28;20444;-60
2022/08/20 06:38:24;;;;;;;1.15;0.70;;;;;;;;;;10460806;28;20043;-52
2022/08/20 06:43:24;;;;;;;2.80;1.00;;;;;;;;;;10455102;28;20067;-57
2022/08/20 06:48:25;;;;;;;1.33;1.10;;;;;;;;;;10451396;28;20119;-57
2022/08/20 06:53:27;;;;;;;1.75;0.82;;;;;;;;;;10452674;28;20036;-52
2022/08/20 06:58:28;;;;;;;7.13;1.23;;;;;;;;;;10450505;28;20063;-57
2022/08/20 07:03:29;;;;;;;5.03;1.35;;;;;;;;;;10449111;28;20075;-57
2022/08/20 07:08:30;;;;;;;1.73;1.08;;;;;;;;;;10454438;28;20096;-57
2022/08/20 07:13:31;;;;;;;6.03;1.13;;;;;;;;;;10451582;28;20101;-57
2022/08/20 07:18:32;;;;;;;3.42;1.20;;;;;;;;;;10449211;28;20027;-57
2022/08/20 07:23:32;;;;;;;2.40;1.08;;;;;;;;;;10450292;28;20116;-58
2022/08/20 07:28:33;;;;;;;1.25;0.80;;;;;;;;;;10448548;28;20480;-53
2022/08/20 07:33:34;;;;;;;5.15;1.10;;;;;;;;;;10451074;28;20041;-57
2022/08/20 07:38:36;;;;;;;3.92;1.00;;;;;;;;;;10433776;28;20025;-58
2022/08/20 07:43:38;;;;;;;2.15;1.30;;;;;;;;;;10437330;28;20025;-58
2022/08/20 07:48:45;;;;;;;13.95;1.10;;;;;;;;;;10420847;28;20112;-57
2022/08/20 07:53:47;;;;;;;4.43;1.00;;;;;;;;;;10439893;28;20033;-59
2022/08/20 07:58:54;;;;;;;2.53;1.10;;;;;;;;;;10461013;28;20032;-58
2022/08/20 08:03:56;;;;;;;4.57;0.80;;;;;;;;;;10434234;28;20513;-58
2022/08/20 08:09:09;;;;;;;5.10;1.10;;;;;;;;;;10420184;28;20033;-55
2022/08/20 08:14:11;;;;;;;2.42;0.80;;;;;;;;;;10437151;28;20029;-49
2022/08/20 08:19:16;;;;;;;1.55;1.05;;;;;;;;;;10459260;28;20055;-50
2022/08/20 08:24:17;;;;;;;1.77;1.10;;;;;;;;;;10448177;28;20028;-51
2022/08/20 08:29:17;;;;;;;12.20;1.75;;;;;;;;;;10440685;28;20147;-57
2022/08/20 08:34:18;;;;;;;4.55;1.90;;;;;;;;;;10435595;28;20092;-57
2022/08/20 08:39:19;;;;;;;1.85;1.00;;;;;;;;;;10462019;28;20024;-57
2022/08/20 08:44:32;;;;;;;3.60;1.50;;;;;;;;;;10448463;28;20067;-57
2022/08/20 08:49:34;;;;;;;1.85;1.10;;;;;;;;;;10448185;28;20037;-58
2022/08/20 08:54:39;;;;;;;2.47;1.20;;;;;;;;;;10436249;28;20555;-58
2022/08/20 08:59:40;;;;;;;3.13;1.20;;;;;;;;;;10446200;28;20112;-58
2022/08/20 09:04:41;;;;;;;3.85;1.10;;;;;;;;;;10440404;28;20044;-58
2022/08/20 09:09:45;;;;;;;1.85;1.00;;;;;;;;;;10436088;28;20420;-58
2022/08/20 09:14:48;;;;;;;5.63;1.27;;;;;;;;;;10457449;28;20032;-57
2022/08/20 09:19:51;;;;;;;5.32;1.38;;;;;;;;;;10473934;28;20037;-57
2022/08/20 09:24:52;;;;;;;7.53;1.23;;;;;;;;;;10448375;28;20043;-59
2022/08/20 09:29:52;;;;;;;4.40;1.10;;;;;;;;;;10441141;28;20036;-58
2022/08/20 09:34:55;;;;;;;3.13;1.50;;;;;;;;;;10445366;28;20025;-59
2022/08/20 09:39:56;;;;;;;3.17;1.35;;;;;;;;;;10453716;28;20392;-59
2022/08/20 09:44:58;;;;;;;6.72;1.15;;;;;;;;;;10445064;28;20106;-61
2022/08/20 09:50:00;;;;;;;2.45;1.25;;;;;;;;;;10451122;28;20152;-60
2022/08/20 09:55:38;;;;;;;2.45;1.00;;;;;;;;;;10454508;28;20025;-52
2022/08/20 10:00:39;;;;;;;2.17;1.02;;;;;;;;;;10450736;28;20040;-55
2022/08/20 10:05:40;;;;;;;3.35;1.08;;;;;;;;;;10456372;28;20076;-58
2022/08/20 10:10:41;;;;;;;4.85;1.38;;;;;;;;;;10459452;28;20044;-59
2022/08/20 10:15:42;;;;;;;1.88;0.90;;;;;;;;;;10443134;28;20048;-57
2022/08/20 10:20:42;;;;;;;4.55;1.52;;;;;;;;;;10443390;28;20032;-56
2022/08/20 10:25:43;;;;;;;1.83;0.85;;;;;;;;;;10447099;28;20029;-58
2022/08/20 10:30:44;;;;;;;4.57;0.90;;;;;;;;;;10449380;28;20063;-59
2022/08/20 10:35:44;;;;;;;2.53;0.90;;;;;;;;;;10450866;28;20135;-61
2022/08/20 10:40:45;;;;;;;2.85;1.08;;;;;;;;;;10452577;28;20029;-60
2022/08/20 10:45:45;;;;;;;3.40;1.10;;;;;;;;;;10474096;28;20021;-61
2022/08/20 10:50:46;;;;;;;2.60;0.95;;;;;;;;;;10451687;28;20264;-60
2022/08/20 10:55:47;;;;;;;1.02;0.82;;;;;;;;;;10459334;28;20120;-59
2022/08/20 11:00:48;;;;;;;1.58;1.08;;;;;;;;;;10453118;28;20409;-63
2022/08/20 11:05:48;;;;;;;1.80;0.88;;;;;;;;;;10457200;28;20072;-61
2022/08/20 11:10:50;;;;;;;2.72;1.02;;;;;;;;;;10464194;28;20028;-59
2022/08/20 11:15:51;;;;;;;3.45;1.08;;;;;;;;;;10453424;28;20393;-62
2022/08/20 11:20:52;;;;;;;2.15;0.93;;;;;;;;;;10472179;28;20035;-62
2022/08/20 11:25:53;;;;;;;3.33;1.20;;;;;;;;;;10456691;28;20032;-62
2022/08/20 11:30:54;;;;;;;2.35;1.20;;;;;;;;;;10447249;28;20033;-62
2022/08/20 11:35:54;;;;;;;4.68;1.27;;;;;;;;;;10456001;28;20021;-61
2022/08/20 11:40:55;;;;;;;1.20;1.00;;;;;;;;;;10464978;28;20029;-60
2022/08/20 11:45:56;;;;;;;1.90;1.05;;;;;;;;;;10448295;28;20021;-61
2022/08/20 11:50:57;;;;;;;4.13;1.00;;;;;;;;;;10447280;28;20100;-62
2022/08/20 11:55:58;;;;;;;2.67;0.95;;;;;;;;;;10446211;28;20055;-61
2022/08/20 12:00:59;;;;;;;1.88;1.20;;;;;;;;;;10446075;28;20028;-60
2022/08/20 12:05:59;;;;;;;1.58;0.90;;;;;;;;;;10448629;28;20044;-60
2022/08/20 12:11:02;;;;;;;1.38;0.95;;;;;;;;;;10440637;28;20029;-61
2022/08/20 12:16:04;;;;;;;1.50;0.90;;;;;;;;;;10454983;28;20396;-61
2022/08/20 12:21:05;;;;;;;1.92;1.10;;;;;;;;;;10461397;28;20107;-61
2022/08/20 12:26:06;;;;;;;3.83;1.08;;;;;;;;;;10444923;28;20373;-61
2022/08/20 12:31:06;;;;;;;1.90;1.25;;;;;;;;;;10443610;28;20033;-61
2022/08/20 12:36:07;;;;;;;1.88;1.00;;;;;;;;;;10454831;28;20152;-61
2022/08/20 12:41:08;;;;;;;2.80;1.30;;;;;;;;;;10452853;28;20029;-61
2022/08/20 12:46:09;;;;;;;1.60;1.20;;;;;;;;;;10446335;28;20029;-62
2022/08/20 12:51:09;;;;;;;1.45;0.82;;;;;;;;;;10445221;28;20492;-62
2022/08/20 12:56:10;;;;;;;1.65;0.95;;;;;;;;;;10459255;28;20029;-61
2022/08/20 13:01:10;;;;;;;1.65;1.00;;;;;;;;;;10454701;28;20079;-61
2022/08/20 13:06:11;;;;;;;2.75;0.98;;;;;;;;;;10453666;28;20052;-62
2022/08/20 13:11:12;;;;;;;2.30;1.02;;;;;;;;;;10459587;28;20029;-59
2022/08/20 13:16:13;;;;;;;1.63;0.93;;;;;;;;;;10449754;28;20041;-61
2022/08/20 13:21:14;;;;;;;2.85;1.13;;;;;;;;;;10456712;28;20104;-62
2022/08/20 13:26:15;;;;;;;1.90;0.90;;;;;;;;;;10446948;28;20025;-61
2022/08/20 13:31:15;;;;;;;1.70;0.90;;;;;;;;;;10446997;28;20032;-60
2022/08/20 13:36:16;;;;;;;2.28;1.02;;;;;;;;;;10452643;28;20048;-62
2022/08/20 13:41:17;;;;;;;1.52;0.98;;;;;;;;;;10453984;28;20025;-61
2022/08/20 13:46:17;;;;;;;2.55;1.38;;;;;;;;;;10452773;28;20074;-60
2022/08/20 13:51:18;;;;;;;5.13;1.23;;;;;;;;;;10451228;28;20464;-54
2022/08/20 13:56:19;;;;;;;1.13;0.90;;;;;;;;;;10437989;28;20051;-51
2022/08/20 14:01:19;;;;;;;2.00;1.23;;;;;;;;;;10437666;28;20260;-52
2022/08/20 14:06:20;;;;;;;2.20;0.98;;;;;;;;;;10427617;28;20033;-54
2022/08/20 14:11:20;;;;;;;0.90;0.90;;;;;;;;;;10466316;28;20036;-53
2022/08/20 14:16:21;;;;;;;3.30;0.80;;;;;;;;;;10445869;28;20029;-59
2022/08/20 14:21:21;;;;;;;3.58;1.10;;;;;;;;;;10447741;28;20526;-60
2022/08/20 14:26:23;;;;;;;1.55;1.02;;;;;;;;;;10451661;28;20496;-60
2022/08/20 14:31:23;;;;;;;1.30;1.02;;;;;;;;;;10455394;28;20439;-53
2022/08/20 14:36:24;;;;;;;2.75;1.00;;;;;;;;;;10459524;28;20029;-54
2022/08/20 14:41:24;;;;;;;5.68;1.08;;;;;;;;;;10457637;28;20042;-56
2022/08/20 14:46:25;;;;;;;1.15;0.98;;;;;;;;;;10471935;28;20287;-59
2022/08/20 14:51:25;;;;;;;3.65;0.82;;;;;;;;;;10451509;28;20032;-55
2022/08/20 14:56:27;;;;;;;1.98;1.13;;;;;;;;;;10443454;28;20028;-51
2022/08/20 15:01:27;;;;;;;3.70;1.08;;;;;;;;;;10450516;28;20028;-57
2022/08/20 15:06:28;;;;;;;2.42;1.13;;;;;;;;;;10448733;28;20126;-56
2022/08/20 15:11:28;;;;;;;1.13;1.02;;;;;;;;;;10453532;28;20404;-49
2022/08/20 15:16:29;;;;;;;2.42;0.90;;;;;;;;;;10467662;28;20472;-59
2022/08/20 15:21:29;;;;;;;1.73;1.00;;;;;;;;;;10442776;28;20246;-59
2022/08/20 15:26:30;;;;;;;3.30;0.85;;;;;;;;;;10436899;28;20175;-54
2022/08/20 15:31:31;;;;;;;1.42;0.82;;;;;;;;;;10437835;28;20111;-58
2022/08/20 15:36:31;;;;;;;1.00;0.90;;;;;;;;;;10450684;28;20024;-61
2022/08/20 15:41:32;;;;;;;2.67;1.05;;;;;;;;;;10447586;28;20033;-57
2022/08/20 15:46:33;;;;;;;2.22;1.05;;;;;;;;;;10440381;28;20417;-62
2022/08/20 15:51:41;;;;;;;1.95;0.98;;;;;;;;;;10442355;28;20120;-52
2022/08/20 15:56:54;;;;;;;4.50;1.38;;;;;;;;;;10470735;28;20411;-51
2022/08/20 16:02:19;;;;;;;6.18;1.20;;;;;;;;;;10447448;28;20513;-52
2022/08/20 16:07:39;;;;;;;1.13;0.95;;;;;;;;;;10477770;28;20056;-53
2022/08/20 16:12:46;;;;;;;1.48;1.02;;;;;;;;;;10479474;28;20020;-53
2022/08/20 16:18:07;;;;;;;1.70;0.82;;;;;;;;;;10440863;28;20084;-53
2022/08/20 16:23:11;;;;;;;3.25;1.00;;;;;;;;;;10446626;28;20287;-51
2022/08/20 16:28:26;;;;;;;1.33;1.02;;;;;;;;;;10480338;28;20271;-50
2022/08/20 16:33:58;;;;;;;1.55;1.13;;;;;;;;;;10471856;28;20468;-53
2022/08/20 16:39:23;;;;;;;1.10;1.00;;;;;;;;;;10470441;28;20396;-55
2022/08/20 16:44:44;;;;;;;1.23;1.13;;;;;;;;;;10477920;28;20102;-57
2022/08/20 16:49:57;;;;;;;1.45;0.98;;;;;;;;;;10475182;28;20044;-49
2022/08/20 16:54:58;;;;;;;2.33;0.90;;;;;;;;;;10477780;28;20388;-60
2022/08/20 17:00:25;;;;;;;1.80;0.98;;;;;;;;;;10457495;28;20040;-60
2022/08/20 17:05:50;;;;;;;1.20;0.87;;;;;;;;;;10444814;28;20051;-60
2022/08/20 17:11:09;;;;;;;1.00;0.93;;;;;;;;;;10461207;28;20025;-57
2022/08/20 17:16:13;;;;;;;0.93;0.90;;;;;;;;;;10457873;28;20032;-58
2022/08/20 17:21:30;;;;;;;3.63;0.90;;;;;;;;;;10458340;28;20155;-55
2022/08/20 17:26:55;;;;;;;1.53;1.00;;;;;;;;;;10432505;28;20124;-60
2022/08/20 17:32:08;;;;;;;2.88;1.10;;;;;;;;;;10453126;28;20037;-52
2022/08/20 17:37:35;;;;;;;1.60;1.10;;;;;;;;;;10455669;28;20025;-51
2022/08/20 17:43:01;;;;;;;1.48;0.95;;;;;;;;;;10477053;28;20094;-61
2022/08/20 17:48:07;;;;;;;1.83;0.82;;;;;;;;;;10479489;28;20471;-55
2022/08/20 17:53:24;;;;;;;2.17;1.10;;;;;;;;;;10448230;28;20040;-53
2022/08/20 17:58:40;;;;;;;1.73;1.08;;;;;;;;;;10449571;28;20032;-53
2022/08/20 18:03:41;;;;;;;3.30;0.93;;;;;;;;;;10455901;28;20041;-53
2022/08/20 18:08:55;;;;;;;1.40;1.10;;;;;;;;;;10457020;28;20473;-53
2022/08/20 18:14:31;;;;;;;1.35;1.00;;;;;;;;;;10457977;28;20021;-52
2022/08/20 18:20:12;;;;;;;4.10;1.02;;;;;;;;;;10473580;28;20024;-54
2022/08/20 18:25:44;;;;;;;1.20;0.98;;;;;;;;;;10468495;28;20111;-57
2022/08/20 18:30:58;;;;;;;4.93;1.00;;;;;;;;;;10435419;28;20040;-56
2022/08/20 18:36:29;;;;;;;8.07;1.88;;;;;;;;;;10449292;28;20571;-54
2022/08/20 18:41:34;;;;;;;7.15;2.42;;;;;;;;;;10430813;28;20075;-58
2022/08/20 18:46:50;;;;;;;3.67;1.73;;;;;;;;;;10437281;28;20047;-59
2022/08/20 18:51:51;;;;;;;3.58;2.00;;;;;;;;;;10458491;28;20090;-57
2022/08/20 18:57:06;;;;;;;3.65;2.33;;;;;;;;;;10464006;28;20060;-59
2022/08/20 19:02:33;;;;;;;12.60;2.60;;;;;;;;;;10440483;28;20063;-56
2022/08/20 19:07:41;;;;;;;7.43;2.23;;;;;;;;;;10433284;28;20224;-58
2022/08/20 19:13:44;;;;;;;6.43;3.22;;;;;;;;;;10453855;28;20044;-59
2022/08/20 19:18:51;;;;;;;7.88;4.90;;;;;;;;;;10438861;28;20044;-54
2022/08/20 19:23:56;;;;;;;7.95;4.82;;;;;;;;;;10448895;28;20383;-57
2022/08/20 19:29:01;;;;;;;7.50;4.20;;;;;;;;;;10438893;28;20041;-55
2022/08/20 19:34:18;;;;;;;7.80;4.07;;;;;;;;;;10439618;28;20064;-56
2022/08/20 19:39:21;;;;;;;7.18;3.85;;;;;;;;;;10441346;28;20479;-58
2022/08/20 19:44:38;;;;;;;6.70;3.75;;;;;;;;;;10446916;28;20032;-54
2022/08/20 19:50:24;;;;;;;6.88;3.15;;;;;;;;;;10448271;28;20065;-54
2022/08/20 19:55:34;;;;;;;17.92;3.97;;;;;;;;;;10432518;28;20033;-52
2022/08/20 20:00:44;;;;;;;7.88;3.45;;;;;;;;;;10455123;28;20084;-53
2022/08/20 20:05:57;;;;;;;6.13;3.20;;;;;;;;;;10467632;28;20037;-55
2022/08/20 20:10:59;;;;;;;5.93;2.92;;;;;;;;;;10461776;28;20040;-53
2022/08/20 20:16:02;;;;;;;9.98;3.33;;;;;;;;;;10449164;28;20020;-52
2022/08/20 20:21:36;;;;;;;5.88;3.00;;;;;;;;;;10460353;28;20030;-55
2022/08/20 20:26:40;;;;;;;3.97;3.20;;;;;;;;;;10475587;28;20055;-53
2022/08/20 20:31:52;;;;;;;6.05;3.30;;;;;;;;;;10475220;28;20036;-52
2022/08/20 20:37:27;;;;;;;3.33;2.70;;;;;;;;;;10430621;28;20091;-53
2022/08/20 20:42:28;;;;;;;5.70;3.10;;;;;;;;;;10447627;28;20047;-54
2022/08/20 20:47:32;;;;;;;5.72;3.00;;;;;;;;;;10464220;28;20260;-54
2022/08/20 20:52:48;;;;;;;5.15;3.10;;;;;;;;;;10471897;28;20044;-59
2022/08/20 20:57:50;;;;;;;3.50;2.70;;;;;;;;;;10470571;28;20021;-57
2022/08/20 21:02:51;;;;;;;7.03;3.08;;;;;;;;;;10442530;28;20442;-58
2022/08/20 21:08:02;;;;;;;6.82;3.13;;;;;;;;;;10456025;28;20049;-60
2022/08/20 21:13:05;;;;;;;3.83;2.60;;;;;;;;;;10447877;28;20082;-53
2022/08/20 21:18:08;;;;;;;3.45;2.30;;;;;;;;;;10477546;28;20028;-53
2022/08/20 21:23:08;;;;;;;3.13;2.13;;;;;;;;;;10458170;28;20048;-54
2022/08/20 21:28:09;;;;;;;4.85;2.50;;;;;;;;;;10449606;28;20052;-54
2022/08/20 21:33:09;;;;;;;3.75;2.53;;;;;;;;;;10482321;28;20111;-52
2022/08/20 21:38:10;;;;;;;3.13;2.30;;;;;;;;;;10480836;28;20059;-53
2022/08/20 21:43:11;;;;;;;6.93;2.42;;;;;;;;;;10453875;28;20024;-52
2022/08/20 21:48:11;;;;;;;3.22;2.05;;;;;;;;;;10444773;28;20032;-50
2022/08/20 21:53:12;;;;;;;8.13;2.38;;;;;;;;;;10455435;28;20429;-51
2022/08/20 21:58:14;;;;;;;7.95;2.63;;;;;;;;;;10462958;28;20416;-52
2022/08/20 22:03:16;;;;;;;3.80;2.50;;;;;;;;;;10471911;28;20411;-51
2022/08/20 22:08:18;;;;;;;3.33;2.30;;;;;;;;;;10460862;28;20147;-50
2022/08/20 22:13:30;;;;;;;3.20;2.55;;;;;;;;;;10463006;28;20472;-55
2022/08/20 22:18:31;;;;;;;3.08;2.55;;;;;;;;;;10445816;28;20033;-59
2022/08/20 22:23:31;;;;;;;3.63;2.35;;;;;;;;;;10451743;28;20357;-54
2022/08/20 22:28:33;;;;;;;3.92;2.22;;;;;;;;;;10447072;28;20025;-59
2022/08/20 22:33:34;;;;;;;3.38;2.00;;;;;;;;;;10441385;28;20037;-59
2022/08/20 22:38:35;;;;;;;3.20;1.80;;;;;;;;;;10459971;28;20033;-59
2022/08/20 22:43:35;;;;;;;2.33;1.63;;;;;;;;;;10456250;28;20033;-57
2022/08/20 22:48:36;;;;;;;2.85;1.92;;;;;;;;;;10450574;28;20403;-60
2022/08/20 22:53:44;;;;;;;4.55;1.60;;;;;;;;;;10447223;28;20431;-59
2022/08/20 22:58:45;;;;;;;4.18;2.33;;;;;;;;;;10450732;28;20039;-58
2022/08/20 23:03:45;;;;;;;2.33;1.77;;;;;;;;;;10448758;28;20503;-57
2022/08/20 23:08:46;;;;;;;1.65;1.55;;;;;;;;;;10451477;28;20172;-59
2022/08/20 23:13:50;;;;;;;3.05;1.80;;;;;;;;;;10453894;28;20025;-59
2022/08/20 23:18:51;;;;;;;4.88;1.85;;;;;;;;;;10453967;28;20025;-59
2022/08/20 23:23:52;;;;;;;2.78;1.73;;;;;;;;;;10450536;28;20029;-59
2022/08/20 23:28:52;;;;;;;3.55;1.75;;;;;;;;;;10456591;28;20017;-59
2022/08/20 23:33:53;;;;;;;2.17;1.42;;;;;;;;;;10430155;28;20033;-58
2022/08/20 23:38:53;;;;;;;2.05;1.50;;;;;;;;;;10428671;28;20044;-58
2022/08/20 23:43:54;;;;;;;2.63;1.42;;;;;;;;;;10447553;28;20028;-59
2022/08/20 23:48:55;;;;;;;3.60;1.60;;;;;;;;;;10443777;28;20029;-58
2022/08/20 23:53:55;;;;;;;4.03;1.33;;;;;;;;;;10444203;28;20072;-58
2022/08/20 23:58:56;;;;;;;3.08;1.55;;;;;;;;;;10417043;28;20045;-58
